Latest Weather Observations for Thredbo Top Station

IDN60901

Issued at 7:41 pm EDT Wednesday 22 January 2020 (issued every 10 minutes, with the page automatically refreshed every 10 minutes)

About weather observations | Map of Canberra area stations | Latest observations for Canberra area | Other Formats
Station Details ID: 071032 Name: THREDBO AWS Lat: -36.49 Lon: 148.29 Height: 1957.0 m
Data from the previous 72 hours. | See also: Recent months at Thredbo Top Station
Date/Time
EDT
Temp
°C
App
Temp
°C
Dew
Point
°C
Rel
Hum
%
Delta-T
°C
Wind Press
QNH
hPa
Press
MSL
hPa
Rain since
9am
mm
Dir  Spd
km/h
Gust
km/h
Spd
kts
Gust
kts
22/07:30pm 16.2 6.5 2.9 41 6.7 NNW 43 56 23 30 - - 0.0
22/07:00pm 16.7 6.9 3.4 41 6.8 NNW 44 57 24 31 - - 0.0
22/06:30pm 16.1 5.9 3.2 42 6.6 NNW 46 57 25 31 - - 0.0
22/06:00pm 17.1 7.7 4.4 43 6.7 NNW 43 56 23 30 - - 0.0
22/05:46pm 17.2 8.3 4.9 44 6.5 NNW 41 59 22 32 - - 0.0
22/05:30pm 16.9 8.0 4.9 45 6.3 NNW 41 56 22 30 - - 0.0
22/05:08pm 16.9 9.6 7.0 52 5.4 NNW 35 54 19 29 - - 0.0
22/05:00pm 16.0 8.1 6.2 52 5.3 NNW 37 54 20 29 - - 0.0
22/04:30pm 16.7 8.5 6.5 51 5.6 NNW 39 56 21 30 - - 0.0
22/04:11pm 16.0 7.6 5.6 50 5.5 NNW 39 57 21 31 1014.3 1005.2 0.0
22/04:00pm 16.1 7.0 5.7 50 5.6 NNW 43 57 23 31 - - 0.0
22/03:30pm 16.2 9.1 6.6 53 5.2 NNW 33 54 18 29 1014.3 1005.2 0.0
22/03:00pm 16.1 7.7 7.3 56 4.9 NNW 41 59 22 32 1014.5 1005.4 0.0
22/02:34pm 16.4 7.9 7.1 54 5.1 NNW 41 59 22 32 1014.4 1005.3 0.0
22/02:30pm 16.3 7.7 6.7 53 5.2 NNW 41 57 22 31 1014.7 1005.6 0.0
22/02:00pm 15.3 7.5 8.3 63 3.9 NW 39 56 21 30 1015.0 1005.9 0.0
22/01:30pm 14.9 5.8 7.0 59 4.3 NNW 44 59 24 32 1015.1 1006.1 0.0
22/01:10pm 14.9 7.0 9.3 69 3.2 NW 41 59 22 32 1015.4 1006.3 0.0
22/01:00pm 13.1 3.9 8.0 71 2.8 NNW 46 59 25 32 1015.1 1006.1 0.0
22/12:30pm 12.0 3.6 7.5 74 2.4 NNW 41 57 22 31 1015.1 1006.1 0.0
22/12:01pm 11.4 2.9 7.1 75 2.3 NNW 41 59 22 32 1015.6 1006.6 0.0
22/12:00pm 11.4 2.6 7.3 76 2.2 NNW 43 59 23 32 1015.7 1006.7 0.0
22/11:30am 11.0 3.3 6.9 76 2.2 NW 37 56 20 30 1016.1 1007.1 0.0
22/11:04am 11.9 4.6 7.0 72 2.6 NNW 35 54 19 29 1016.4 1007.3 0.0
22/11:00am 11.7 3.5 6.4 70 2.8 NNW 39 54 21 29 1016.1 1007.1 0.0
22/10:47am 11.9 3.8 7.0 72 2.6 NNW 39 57 21 31 1016.5 1007.4 0.0
22/10:30am 11.9 4.6 7.0 72 2.6 NNW 35 50 19 27 1016.5 1007.4 0.0
22/10:00am 11.0 2.3 6.0 71 2.6 NNW 41 54 22 29 1016.5 1007.4 0.0
22/09:30am 10.9 0.6 6.6 75 2.3 NNW 50 59 27 32 1016.0 1006.9 0.0
22/09:00am 10.4 0.5 4.8 68 2.8 NW 46 59 25 32 1015.3 1006.2 0.0
22/08:30am 9.8 1.9 6.0 77 2.0 NW 37 59 20 32 1014.7 1005.6 0.0
22/08:00am 9.1 1.6 6.2 82 1.5 NW 35 59 19 32 1014.3 1005.2 0.0
22/07:30am 8.7 1.7 6.0 83 1.4 NW 32 59 17 32 - - 0.0
22/07:06am 8.3 2.0 5.8 84 1.3 NW 28 57 15 31 - - 0.0
22/07:00am 8.1 2.2 5.9 86 1.1 NW 26 57 14 31 - - 0.0
22/06:30am 7.5 -0.4 6.0 90 0.8 NW 37 57 20 31 - - 0.0
22/06:00am 7.2 -1.1 6.0 92 0.6 NW 39 59 21 32 - - 0.0
22/05:30am 7.1 -0.8 6.4 95 0.4 NW 37 59 20 32 - - 0.0
22/05:14am 7.3 2.4 5.1 86 1.1 NW 20 59 11 32 - - 0.0
22/05:00am 7.2 4.2 6.0 92 0.6 NW 11 59 6 32 - - 0.0
22/04:30am 8.1 1.8 1.3 62 3.1 NW 24 59 13 32 - - 0.0
22/04:12am 8.6 -1.5 -2.3 46 4.6 NW 41 59 22 32 - - 0.0
22/04:00am 8.3 -3.2 -0.4 54 3.9 NW 50 59 27 32 - - 0.0
22/03:30am 8.6 -2.5 2.4 65 2.9 NW 50 59 27 32 - - 0.0
22/03:01am 7.8 -0.7 7.1 95 0.4 NW 41 59 22 32 - - 0.0
22/03:00am 7.9 -1.0 7.0 94 0.5 NW 43 59 23 32 - - 0.0
22/02:31am 8.2 2.2 7.1 93 0.6 NW 28 59 15 32 - - 0.0
22/02:30am 8.2 2.6 7.1 93 0.6 NW 26 59 14 32 - - 0.0
22/02:00am 8.3 2.1 7.7 96 0.3 NW 30 59 16 32 - - 0.0
22/01:59am 8.2 2.4 7.8 97 0.2 NW 28 59 15 32 - - 0.0
22/01:30am 8.3 3.3 7.9 97 0.2 NW 24 59 13 32 - - 0.0
22/01:00am 8.4 0.2 8.0 97 0.2 NW 41 59 22 32 - - 0.0
22/12:35am 8.5 0.3 8.1 97 0.2 NW 41 59 22 32 - - 0.0
22/12:30am 8.5 -1.1 8.1 97 0.2 NW 48 59 26 32 - - 0.0
22/12:00am 8.6 -1.3 8.3 98 0.2 NW 50 59 27 32 1014.3 1005.2 0.0
 
Date/Time
EDT
Temp
°C
App
Temp
°C
Dew
Point
°C
Rel
Hum
%
Delta-T
°C
Wind Press
QNH
hPa
Press
MSL
hPa
Rain since
9am
mm
Dir  Spd
km/h
Gust
km/h
Spd
kts
Gust
kts
21/11:30pm 8.8 -0.3 8.5 98 0.2 NW 46 57 25 31 1015.0 1005.9 0.0
21/11:00pm 9.0 0.9 8.6 97 0.2 NNW 41 54 22 29 1015.4 1006.3 0.0
21/10:31pm 9.1 2.5 8.6 97 0.3 NW 33 52 18 28 1015.5 1006.4 0.0
21/10:30pm 9.0 2.6 8.6 97 0.2 NW 32 46 17 25 1015.6 1006.6 0.0
21/10:00pm 9.0 2.0 8.6 97 0.2 NNW 35 52 19 28 1015.6 1006.6 0.0
21/09:38pm 9.1 2.8 8.8 98 0.2 NW 32 52 17 28 1015.4 1006.3 0.0
21/09:30pm 8.9 3.3 8.6 98 0.2 NW 28 43 15 23 1015.7 1006.7 0.0
21/09:00pm 8.9 2.5 8.6 98 0.2 NW 32 43 17 23 1015.4 1006.3 0.0
21/08:39pm 8.8 2.8 8.5 98 0.2 NW 30 48 16 26 1015.4 1006.3 0.0
21/08:30pm 8.8 2.4 8.5 98 0.2 NW 32 43 17 23 1015.4 1006.3 0.0
21/08:00pm 8.9 3.6 8.6 98 0.2 NW 26 39 14 21 1015.3 1006.2 0.0
21/07:30pm 9.1 3.5 8.8 98 0.2 NW 28 43 15 23 1014.9 1005.8 0.0
21/07:00pm 9.4 2.9 8.9 97 0.3 NW 33 44 18 24 1014.5 1005.4 0.0
21/06:30pm 9.5 3.2 9.0 97 0.3 NW 32 46 17 25 1014.3 1005.2 0.0
21/06:00pm 9.8 4.3 9.3 97 0.3 NW 28 43 15 23 1014.3 1005.2 0.0
21/05:30pm 9.9 5.2 9.4 97 0.3 NW 24 35 13 19 1014.3 1005.2 0.0
21/05:00pm 10.3 5.7 9.8 97 0.3 WNW 24 41 13 22 1014.4 1005.3 0.0
21/04:30pm 10.8 6.0 10.3 97 0.3 NW 26 39 14 21 1014.7 1005.6 0.0
21/04:00pm 9.2 3.6 8.9 98 0.2 NW 28 41 15 22 1014.7 1005.6 0.0
21/03:30pm 10.7 5.4 9.9 95 0.5 WNW 28 41 15 22 1014.8 1005.7 0.0
21/03:00pm 10.0 6.2 9.7 98 0.2 NW 20 35 11 19 1015.0 1005.9 0.0
21/02:30pm 9.4 3.9 9.1 98 0.2 NW 28 39 15 21 1014.5 1005.4 0.0
21/02:03pm 8.4 2.6 8.1 98 0.2 NW 28 46 15 25 1014.8 1005.7 0.0
21/02:00pm 7.9 1.6 7.6 98 0.2 NNW 30 46 16 25 1014.7 1005.6 0.0
21/01:30pm 8.0 2.1 7.7 98 0.2 NW 28 39 15 21 1014.8 1005.7 0.0
21/01:00pm 9.7 4.6 9.2 97 0.3 NW 26 41 14 22 1014.9 1005.8 0.0
21/12:30pm 9.7 3.8 9.2 97 0.3 NW 30 44 16 24 1014.8 1005.7 0.0
21/12:00pm 9.8 3.0 9.3 97 0.3 NW 35 48 19 26 - - 0.0
21/11:30am 8.6 2.1 8.3 98 0.2 NW 32 44 17 24 - - 0.0
21/11:00am 8.6 3.7 8.3 98 0.2 WNW 24 37 13 20 - - 0.0
21/10:30am 8.4 4.2 8.1 98 0.2 WNW 20 32 11 17 - - 0.0
21/10:00am 7.7 3.5 7.4 98 0.2 W 19 28 10 15 - - 0.0
21/09:30am 7.7 4.6 7.4 98 0.2 WSW 13 20 7 11 - - 0.0
21/09:00am 7.5 5.1 7.2 98 0.2 WSW 9 17 5 9 - - 27.8
21/08:30am 7.1 3.9 6.8 98 0.2 W 13 20 7 11 - - 27.8
21/08:00am 6.8 3.1 6.5 98 0.2 WSW 15 22 8 12 - - 27.8
21/07:30am 6.6 2.5 6.3 98 0.2 WSW 17 26 9 14 - - 27.8
21/07:00am 6.4 2.7 6.1 98 0.2 W 15 22 8 12 - - 27.8
21/06:30am 6.3 2.2 6.0 98 0.2 W 17 24 9 13 - - 27.8
21/06:00am 6.3 1.6 6.0 98 0.2 W 20 28 11 15 - - 27.6
21/05:30am 6.3 1.8 6.0 98 0.2 W 19 26 10 14 - - 27.6
21/05:00am 6.2 1.5 5.9 98 0.2 W 20 30 11 16 - - 27.4
21/04:30am 6.1 1.5 5.8 98 0.2 WNW 19 26 10 14 - - 27.2
21/04:00am 6.0 0.5 5.7 98 0.2 WNW 24 35 13 19 - - 27.0
21/03:30am 5.9 -1.4 5.6 98 0.1 W 33 46 18 25 - - 27.0
21/03:00am 5.6 -1.5 5.3 98 0.1 WNW 32 43 17 23 - - 27.0
21/02:30am 5.7 -0.7 5.4 98 0.1 WNW 28 41 15 22 - - 27.0
21/02:00am 5.8 -1.3 5.5 98 0.1 WNW 32 41 17 22 - - 27.0
21/01:30am 5.7 -3.1 5.4 98 0.1 NW 41 56 22 30 - - 27.0
21/01:00am 5.7 -2.4 5.4 98 0.1 WNW 37 52 20 28 - - 27.0
21/12:41am 5.9 -2.1 5.6 98 0.1 NW 37 56 20 30 - - 26.8
21/12:30am 5.9 -2.5 5.6 98 0.1 NW 39 54 21 29 - - 26.8
21/12:00am 5.9 -2.5 5.6 98 0.1 NW 39 52 21 28 - - 25.8
 
Date/Time
EDT
Temp
°C
App
Temp
°C
Dew
Point
°C
Rel
Hum
%
Delta-T
°C
Wind Press
QNH
hPa
Press
MSL
hPa
Rain since
9am
mm
Dir  Spd
km/h
Gust
km/h
Spd
kts
Gust
kts
20/11:38pm 6.0 -2.0 5.7 98 0.2 NW 37 56 20 30 - - 24.6
20/11:30pm 6.0 -3.1 5.7 98 0.2 NNW 43 56 23 30 - - 24.2
20/11:00pm 6.0 -2.0 5.7 98 0.2 NW 37 57 20 31 - - 22.6
20/10:36pm 6.1 -1.9 5.8 98 0.2 NW 37 56 20 30 - - 22.2
20/10:30pm 6.1 -2.6 5.8 98 0.2 NW 41 56 22 30 - - 22.2
20/10:04pm 6.1 -2.6 5.8 98 0.2 NW 41 59 22 32 - - 21.8
20/10:00pm 6.0 -2.4 5.7 98 0.2 NW 39 56 21 30 - - 21.8
20/09:34pm 6.2 -2.9 5.9 98 0.2 NW 43 59 23 32 - - 20.8
20/09:30pm 6.2 -3.1 5.9 98 0.2 NW 44 59 24 32 - - 20.6
20/09:20pm 6.1 -0.6 5.8 98 0.2 NW 30 48 16 26 - - 20.0
20/09:00pm 6.1 -0.9 5.8 98 0.2 NW 32 48 17 26 - - 17.6
20/08:30pm 5.4 -4.1 5.1 98 0.1 NW 44 57 24 31 - - 16.4
20/08:00pm 5.4 -4.8 5.0 97 0.2 NNW 48 59 26 32 - - 16.4
20/07:30pm 5.8 -1.9 5.4 97 0.2 NNW 35 46 19 25 - - 16.4
20/07:00pm 6.2 -1.4 5.8 97 0.2 NW 35 52 19 28 - - 16.0
20/06:56pm 6.3 -0.9 5.9 97 0.2 NW 33 52 18 28 - - 16.0
20/06:30pm 6.9 0.8 6.6 98 0.2 NNW 28 39 15 21 - - 14.6
20/06:00pm 8.1 2.5 7.2 94 0.5 NNW 26 35 14 19 - - 14.4
20/05:30pm 9.6 2.8 7.0 84 1.4 NNW 32 41 17 22 - - 14.4
20/05:00pm 11.1 5.7 6.5 73 2.4 NNW 24 39 13 21 - - 14.4
20/04:35pm 11.1 4.9 6.0 71 2.7 NW 28 46 15 25 - - 14.4
20/04:30pm 11.0 3.8 5.1 67 3.0 NNW 32 46 17 25 - - 14.4
20/04:22pm 11.0 2.9 5.3 68 2.9 NNW 37 56 20 30 - - 14.4
20/04:00pm 10.6 1.0 3.2 60 3.6 NW 43 57 23 31 - - 14.4
20/03:30pm 9.9 -0.5 4.3 68 2.8 NW 48 57 26 31 - - 14.4
20/03:00pm 7.6 -1.4 6.2 91 0.7 NW 43 54 23 29 - - 14.4
20/02:42pm 6.7 3.4 6.3 97 0.2 NW 13 57 7 31 - - 14.4
20/02:30pm 6.3 4.6 6.0 98 0.2 NW 4 56 2 30 - - 14.4
20/02:15pm 5.9 -2.9 5.6 98 0.1 NW 41 59 22 32 - - 14.4
20/02:00pm 6.1 -2.6 5.8 98 0.2 NW 41 57 22 31 - - 14.4
20/01:58pm 6.2 -2.1 5.9 98 0.2 NW 39 57 21 31 - - 14.4
20/01:30pm 6.3 -3.8 5.9 97 0.2 NNW 48 59 26 32 - - 13.8
20/01:00pm 6.9 -0.6 6.5 97 0.2 NW 35 48 19 26 - - 13.2
20/12:46pm 5.9 -2.1 5.6 98 0.1 NW 37 56 20 30 - - 13.2
20/12:30pm 5.1 -4.8 4.8 98 0.1 NW 46 59 25 32 - - 12.6
20/12:22pm 5.2 -3.4 4.8 97 0.2 NNW 39 57 21 31 - - 12.0
20/12:00pm 6.1 -2.6 5.8 98 0.2 NW 41 57 22 31 - - 9.6
20/11:30am 5.6 -2.1 5.3 98 0.1 NW 35 57 19 31 - - 6.8
20/11:06am 7.0 1.7 6.7 98 0.2 WNW 24 57 13 31 - - 2.4
20/11:04am 8.9 4.8 8.5 97 0.2 WNW 20 54 11 29 - - 1.6
20/11:00am 10.8 8.5 10.5 98 0.2 NW 13 28 7 15 - - 0.6
20/10:30am 12.2 11.1 11.9 98 0.2 E 9 15 5 8 - - 0.0
20/10:00am 13.4 11.5 11.8 90 0.9 NNE 13 20 7 11 - - 0.0
20/09:30am 12.8 9.7 10.2 84 1.5 N 17 24 9 13 - - 0.0
20/09:00am 11.3 8.0 9.7 90 0.9 NNE 17 22 9 12 - - 16.8
20/08:30am 11.1 9.8 9.2 88 1.1 N 6 17 3 9 - - 16.8
20/08:00am 11.7 8.9 8.7 82 1.7 N 13 17 7 9 - - 16.8
20/07:30am 10.6 7.8 8.7 88 1.0 N 13 17 7 9 - - 16.8
20/07:00am 9.7 5.7 8.3 91 0.8 NNE 19 24 10 13 - - 16.8
20/06:30am 8.4 5.0 7.6 95 0.4 N 15 19 8 10 - - 16.8
20/06:00am 7.2 4.0 6.8 97 0.2 NNW 13 15 7 8 - - 16.8
20/05:30am 8.0 3.8 7.6 97 0.2 NNW 19 19 10 10 - - 16.8
20/05:00am 8.9 4.6 6.9 87 1.0 N 19 20 10 11 - - 16.8
20/04:30am 8.6 4.4 7.5 93 0.6 NNW 19 20 10 11 - - 16.8
20/04:00am 9.0 5.0 8.4 96 0.3 NNW 19 22 10 12 - - 16.8
20/03:30am 8.3 4.0 7.9 97 0.2 N 20 22 11 12 - - 16.8
20/03:00am 8.2 3.9 7.8 97 0.2 N 20 26 11 14 - - 16.8
20/02:30am 8.3 3.7 8.0 98 0.2 N 22 32 12 17 - - 16.8
20/02:00am 8.6 4.6 8.3 98 0.2 NNE 19 26 10 14 - - 16.8
20/01:30am 8.3 4.0 8.0 98 0.2 NE 20 26 11 14 - - 16.8
20/01:00am 8.3 2.5 8.0 98 0.2 NNE 28 35 15 19 - - 16.0
20/12:30am 8.4 4.2 8.1 98 0.2 NNE 20 35 11 19 - - 15.4
20/12:00am 8.6 4.0 8.3 98 0.2 NE 22 46 12 25 - - 14.6
 
Date/Time
EDT
Temp
°C
App
Temp
°C
Dew
Point
°C
Rel
Hum
%
Delta-T
°C
Wind Press
QNH
hPa
Press
MSL
hPa
Rain since
9am
mm
Dir  Spd
km/h
Gust
km/h
Spd
kts
Gust
kts
19/11:59pm 8.6 4.4 8.3 98 0.2 NE 20 46 11 25 - - 14.6
19/11:30pm 9.6 7.0 9.3 98 0.2 NE 13 19 7 10 1014.4 1005.3 12.2
19/11:00pm 9.8 6.9 9.5 98 0.2 ENE 15 22 8 12 - - 11.2
19/10:30pm 9.8 9.0 9.5 98 0.2 E 4 7 2 4 1014.3 1005.2 7.6
19/10:00pm 9.8 8.0 9.5 98 0.2 ESE 9 15 5 8 - - 6.0
19/09:30pm 9.8 8.4 9.5 98 0.2 E 7 13 4 7 - - 6.0
19/09:00pm 9.9 8.5 9.6 98 0.2 ENE 7 15 4 8 - - 5.0
19/08:30pm 9.8 8.6 9.5 98 0.2 S 6 9 3 5 - - 4.4
19/08:00pm 10.0 8.8 9.7 98 0.2 S 6 7 3 4 - - 4.4

Latest Capital City Observations: Canberra | Sydney | Melbourne | Brisbane | Adelaide | Perth | Hobart | Darwin

Other formats

Comma delimited format used in spreadsheet applications
http://www.bom.gov.au/fwo/IDN60903/IDN60903.95909.axf

JavaScript Object Notation format (JSON) in row-major order
http://www.bom.gov.au/fwo/IDN60903/IDN60903.95909.json

Data quality

Most of these data are generated automatically and are frequently updated. Quality checks on data are not normally performed. It is possible for incorrect values to appear. Refer to information at About Latest Weather Observations and please check the disclaimer before using these data.